sensor_id;sensor_type;location;lat;lon;timestamp;P1;durP1;ratioP1;P2;durP2;ratioP2
4911;SDS011;2471;47.056;8.350;2023-05-07T00:01:35;11.23;;;3.30;;
4911;SDS011;2471;47.056;8.350;2023-05-07T00:04:01;6.17;;;5.30;;
4911;SDS011;2471;47.056;8.350;2023-05-07T00:06:28;12.60;;;5.37;;
4911;SDS011;2471;47.056;8.350;2023-05-07T00:08:54;10.87;;;5.33;;
4911;SDS011;2471;47.056;8.350;2023-05-07T00:11:20;9.73;;;6.60;;
4911;SDS011;2471;47.056;8.350;2023-05-07T00:13:46;22.43;;;5.73;;
4911;SDS011;2471;47.056;8.350;2023-05-07T00:16:12;15.97;;;4.50;;
4911;SDS011;2471;47.056;8.350;2023-05-07T00:18:38;8.80;;;6.17;;
4911;SDS011;2471;47.056;8.350;2023-05-07T00:21:04;6.03;;;2.47;;
4911;SDS011;2471;47.056;8.350;2023-05-07T00:23:30;4.53;;;4.10;;
4911;SDS011;2471;47.056;8.350;2023-05-07T00:25:56;4.23;;;3.10;;
4911;SDS011;2471;47.056;8.350;2023-05-07T00:28:22;8.40;;;5.53;;
4911;SDS011;2471;47.056;8.350;2023-05-07T00:30:48;5.33;;;3.00;;
4911;SDS011;2471;47.056;8.350;2023-05-07T00:33:14;2.80;;;2.60;;
4911;SDS011;2471;47.056;8.350;2023-05-07T00:35:40;6.63;;;4.57;;
4911;SDS011;2471;47.056;8.350;2023-05-07T00:38:06;10.90;;;2.90;;
4911;SDS011;2471;47.056;8.350;2023-05-07T00:40:32;3.13;;;2.80;;
4911;SDS011;2471;47.056;8.350;2023-05-07T00:42:58;8.43;;;6.00;;
4911;SDS011;2471;47.056;8.350;2023-05-07T00:45:27;6.00;;;4.43;;
4911;SDS011;2471;47.056;8.350;2023-05-07T00:47:54;6.80;;;3.03;;
4911;SDS011;2471;47.056;8.350;2023-05-07T00:50:20;4.73;;;2.70;;
4911;SDS011;2471;47.056;8.350;2023-05-07T00:52:47;6.67;;;3.83;;
4911;SDS011;2471;47.056;8.350;2023-05-07T00:55:13;2.37;;;2.17;;
4911;SDS011;2471;47.056;8.350;2023-05-07T00:57:39;5.93;;;3.20;;
4911;SDS011;2471;47.056;8.350;2023-05-07T01:00:06;5.00;;;2.53;;
4911;SDS011;2471;47.056;8.350;2023-05-07T01:02:33;9.07;;;2.83;;
4911;SDS011;2471;47.056;8.350;2023-05-07T01:05:00;4.73;;;3.10;;
4911;SDS011;2471;47.056;8.350;2023-05-07T01:07:26;8.03;;;4.20;;
4911;SDS011;2471;47.056;8.350;2023-05-07T01:09:52;12.87;;;3.93;;
4911;SDS011;2471;47.056;8.350;2023-05-07T01:12:19;10.00;;;3.37;;
4911;SDS011;2471;47.056;8.350;2023-05-07T01:14:45;8.17;;;4.40;;
4911;SDS011;2471;47.056;8.350;2023-05-07T01:17:11;12.70;;;4.07;;
4911;SDS011;2471;47.056;8.350;2023-05-07T01:19:37;7.73;;;5.90;;
4911;SDS011;2471;47.056;8.350;2023-05-07T01:22:04;4.10;;;2.80;;
4911;SDS011;2471;47.056;8.350;2023-05-07T01:24:33;14.40;;;3.70;;
4911;SDS011;2471;47.056;8.350;2023-05-07T01:26:59;8.10;;;4.33;;
4911;SDS011;2471;47.056;8.350;2023-05-07T01:29:26;4.87;;;3.17;;
4911;SDS011;2471;47.056;8.350;2023-05-07T01:31:52;3.70;;;3.13;;
4911;SDS011;2471;47.056;8.350;2023-05-07T01:34:18;6.73;;;4.07;;
4911;SDS011;2471;47.056;8.350;2023-05-07T01:36:45;6.07;;;5.07;;
4911;SDS011;2471;47.056;8.350;2023-05-07T01:39:12;5.20;;;3.23;;
4911;SDS011;2471;47.056;8.350;2023-05-07T01:41:39;4.97;;;2.50;;
4911;SDS011;2471;47.056;8.350;2023-05-07T01:44:04;13.17;;;7.63;;
4911;SDS011;2471;47.056;8.350;2023-05-07T01:46:31;5.47;;;4.20;;
4911;SDS011;2471;47.056;8.350;2023-05-07T01:48:58;4.70;;;2.50;;
4911;SDS011;2471;47.056;8.350;2023-05-07T01:51:24;3.10;;;2.87;;
4911;SDS011;2471;47.056;8.350;2023-05-07T01:53:51;13.80;;;4.13;;
4911;SDS011;2471;47.056;8.350;2023-05-07T01:56:18;15.50;;;8.17;;
4911;SDS011;2471;47.056;8.350;2023-05-07T01:58:45;8.67;;;3.40;;
4911;SDS011;2471;47.056;8.350;2023-05-07T02:01:12;8.70;;;6.13;;
4911;SDS011;2471;47.056;8.350;2023-05-07T02:03:38;10.33;;;2.30;;
4911;SDS011;2471;47.056;8.350;2023-05-07T02:06:04;7.10;;;3.00;;
4911;SDS011;2471;47.056;8.350;2023-05-07T02:08:30;9.63;;;4.00;;
4911;SDS011;2471;47.056;8.350;2023-05-07T02:10:56;15.17;;;3.50;;
4911;SDS011;2471;47.056;8.350;2023-05-07T02:13:22;7.87;;;3.90;;
4911;SDS011;2471;47.056;8.350;2023-05-07T02:15:49;10.73;;;3.43;;
4911;SDS011;2471;47.056;8.350;2023-05-07T02:18:15;5.43;;;3.03;;
4911;SDS011;2471;47.056;8.350;2023-05-07T02:20:42;7.57;;;3.10;;
4911;SDS011;2471;47.056;8.350;2023-05-07T02:23:08;3.97;;;3.50;;
4911;SDS011;2471;47.056;8.350;2023-05-07T02:25:34;3.27;;;3.03;;
4911;SDS011;2471;47.056;8.350;2023-05-07T02:28:00;5.10;;;3.23;;
4911;SDS011;2471;47.056;8.350;2023-05-07T02:30:26;4.00;;;2.73;;
4911;SDS011;2471;47.056;8.350;2023-05-07T02:32:52;8.37;;;3.87;;
4911;SDS011;2471;47.056;8.350;2023-05-07T02:35:18;3.50;;;3.20;;
4911;SDS011;2471;47.056;8.350;2023-05-07T02:37:44;13.77;;;4.37;;
4911;SDS011;2471;47.056;8.350;2023-05-07T02:40:10;5.43;;;3.40;;
4911;SDS011;2471;47.056;8.350;2023-05-07T02:42:36;6.20;;;3.27;;
4911;SDS011;2471;47.056;8.350;2023-05-07T02:45:02;4.10;;;3.43;;
4911;SDS011;2471;47.056;8.350;2023-05-07T02:47:28;4.40;;;2.63;;
4911;SDS011;2471;47.056;8.350;2023-05-07T02:49:54;3.30;;;3.00;;
4911;SDS011;2471;47.056;8.350;2023-05-07T02:52:21;7.40;;;3.00;;
4911;SDS011;2471;47.056;8.350;2023-05-07T02:54:47;4.40;;;3.00;;
4911;SDS011;2471;47.056;8.350;2023-05-07T02:57:13;7.50;;;3.20;;
4911;SDS011;2471;47.056;8.350;2023-05-07T02:59:39;5.63;;;4.63;;
4911;SDS011;2471;47.056;8.350;2023-05-07T03:02:05;10.80;;;3.40;;
4911;SDS011;2471;47.056;8.350;2023-05-07T03:04:31;6.90;;;3.60;;
4911;SDS011;2471;47.056;8.350;2023-05-07T03:06:57;5.13;;;3.67;;
4911;SDS011;2471;47.056;8.350;2023-05-07T03:09:23;3.30;;;3.07;;
4911;SDS011;2471;47.056;8.350;2023-05-07T03:11:49;17.50;;;4.57;;
4911;SDS011;2471;47.056;8.350;2023-05-07T03:14:15;3.50;;;3.20;;
4911;SDS011;2471;47.056;8.350;2023-05-07T03:16:41;3.77;;;3.43;;
4911;SDS011;2471;47.056;8.350;2023-05-07T03:19:07;5.10;;;3.23;;
4911;SDS011;2471;47.056;8.350;2023-05-07T03:21:33;3.83;;;3.20;;
4911;SDS011;2471;47.056;8.350;2023-05-07T03:23:59;4.33;;;3.50;;
4911;SDS011;2471;47.056;8.350;2023-05-07T03:26:25;4.37;;;3.37;;
4911;SDS011;2471;47.056;8.350;2023-05-07T03:28:51;5.90;;;2.90;;
4911;SDS011;2471;47.056;8.350;2023-05-07T03:31:17;4.37;;;3.67;;
4911;SDS011;2471;47.056;8.350;2023-05-07T03:33:50;4.87;;;3.93;;
4911;SDS011;2471;47.056;8.350;2023-05-07T03:36:16;5.20;;;3.77;;
4911;SDS011;2471;47.056;8.350;2023-05-07T03:38:42;4.83;;;4.30;;
4911;SDS011;2471;47.056;8.350;2023-05-07T03:41:08;4.33;;;3.57;;
4911;SDS011;2471;47.056;8.350;2023-05-07T03:43:34;10.40;;;3.10;;
4911;SDS011;2471;47.056;8.350;2023-05-07T03:46:00;4.67;;;3.27;;
4911;SDS011;2471;47.056;8.350;2023-05-07T03:48:26;10.10;;;3.13;;
4911;SDS011;2471;47.056;8.350;2023-05-07T03:50:52;2.70;;;2.50;;
4911;SDS011;2471;47.056;8.350;2023-05-07T03:53:18;3.20;;;2.80;;
4911;SDS011;2471;47.056;8.350;2023-05-07T03:55:44;4.80;;;3.10;;
4911;SDS011;2471;47.056;8.350;2023-05-07T03:58:10;8.60;;;3.30;;
4911;SDS011;2471;47.056;8.350;2023-05-07T04:00:36;2.83;;;2.60;;
4911;SDS011;2471;47.056;8.350;2023-05-07T04:03:04;7.03;;;3.20;;
4911;SDS011;2471;47.056;8.350;2023-05-07T04:05:30;4.87;;;2.87;;
4911;SDS011;2471;47.056;8.350;2023-05-07T04:07:59;5.93;;;4.00;;
4911;SDS011;2471;47.056;8.350;2023-05-07T04:10:25;4.00;;;3.60;;
4911;SDS011;2471;47.056;8.350;2023-05-07T04:12:53;4.30;;;3.43;;
4911;SDS011;2471;47.056;8.350;2023-05-07T04:15:19;5.53;;;3.60;;
4911;SDS011;2471;47.056;8.350;2023-05-07T04:17:45;4.00;;;3.70;;
4911;SDS011;2471;47.056;8.350;2023-05-07T04:20:13;5.50;;;3.13;;
4911;SDS011;2471;47.056;8.350;2023-05-07T04:22:39;5.80;;;3.67;;
4911;SDS011;2471;47.056;8.350;2023-05-07T04:25:06;3.50;;;3.20;;
4911;SDS011;2471;47.056;8.350;2023-05-07T04:27:32;4.07;;;2.70;;
4911;SDS011;2471;47.056;8.350;2023-05-07T04:29:58;3.50;;;3.20;;
4911;SDS011;2471;47.056;8.350;2023-05-07T04:32:25;20.07;;;3.87;;
4911;SDS011;2471;47.056;8.350;2023-05-07T04:34:51;5.30;;;3.30;;
4911;SDS011;2471;47.056;8.350;2023-05-07T04:37:17;3.40;;;3.10;;
4911;SDS011;2471;47.056;8.350;2023-05-07T04:39:43;10.53;;;5.80;;
4911;SDS011;2471;47.056;8.350;2023-05-07T04:42:09;3.90;;;3.17;;
4911;SDS011;2471;47.056;8.350;2023-05-07T04:44:40;3.53;;;3.23;;
4911;SDS011;2471;47.056;8.350;2023-05-07T04:47:06;3.77;;;3.47;;
4911;SDS011;2471;47.056;8.350;2023-05-07T04:49:32;4.70;;;3.27;;
4911;SDS011;2471;47.056;8.350;2023-05-07T04:51:58;6.37;;;2.90;;
4911;SDS011;2471;47.056;8.350;2023-05-07T04:54:24;5.33;;;2.53;;
4911;SDS011;2471;47.056;8.350;2023-05-07T04:56:50;5.13;;;2.90;;
4911;SDS011;2471;47.056;8.350;2023-05-07T04:59:16;4.60;;;3.00;;
4911;SDS011;2471;47.056;8.350;2023-05-07T05:01:42;3.80;;;3.17;;
4911;SDS011;2471;47.056;8.350;2023-05-07T05:04:08;14.57;;;3.43;;
4911;SDS011;2471;47.056;8.350;2023-05-07T05:06:33;7.13;;;2.90;;
4911;SDS011;2471;47.056;8.350;2023-05-07T05:08:59;6.37;;;2.80;;
4911;SDS011;2471;47.056;8.350;2023-05-07T05:11:25;3.20;;;2.90;;
4911;SDS011;2471;47.056;8.350;2023-05-07T05:13:51;3.37;;;3.10;;
4911;SDS011;2471;47.056;8.350;2023-05-07T05:16:17;8.53;;;3.70;;
4911;SDS011;2471;47.056;8.350;2023-05-07T05:18:43;3.30;;;3.03;;
4911;SDS011;2471;47.056;8.350;2023-05-07T05:21:09;8.80;;;3.50;;
4911;SDS011;2471;47.056;8.350;2023-05-07T05:23:35;10.80;;;3.60;;
4911;SDS011;2471;47.056;8.350;2023-05-07T05:26:01;5.07;;;3.57;;
4911;SDS011;2471;47.056;8.350;2023-05-07T05:28:27;3.93;;;3.13;;
4911;SDS011;2471;47.056;8.350;2023-05-07T05:30:53;10.20;;;3.77;;
4911;SDS011;2471;47.056;8.350;2023-05-07T05:33:19;6.00;;;3.20;;
4911;SDS011;2471;47.056;8.350;2023-05-07T05:35:45;12.23;;;3.77;;
4911;SDS011;2471;47.056;8.350;2023-05-07T05:38:10;3.60;;;2.60;;
4911;SDS011;2471;47.056;8.350;2023-05-07T05:40:36;4.77;;;2.67;;
4911;SDS011;2471;47.056;8.350;2023-05-07T05:43:02;2.60;;;2.40;;
4911;SDS011;2471;47.056;8.350;2023-05-07T05:45:29;2.40;;;2.20;;
4911;SDS011;2471;47.056;8.350;2023-05-07T05:47:56;2.63;;;2.43;;
4911;SDS011;2471;47.056;8.350;2023-05-07T05:50:22;3.87;;;2.50;;
4911;SDS011;2471;47.056;8.350;2023-05-07T05:52:48;3.30;;;2.97;;
4911;SDS011;2471;47.056;8.350;2023-05-07T05:55:14;3.50;;;3.20;;
4911;SDS011;2471;47.056;8.350;2023-05-07T05:57:40;6.03;;;3.13;;
4911;SDS011;2471;47.056;8.350;2023-05-07T06:00:06;3.07;;;2.77;;
4911;SDS011;2471;47.056;8.350;2023-05-07T06:02:33;3.53;;;2.80;;
4911;SDS011;2471;47.056;8.350;2023-05-07T06:04:58;3.03;;;2.73;;
4911;SDS011;2471;47.056;8.350;2023-05-07T06:07:25;3.73;;;2.97;;
4911;SDS011;2471;47.056;8.350;2023-05-07T06:09:50;5.60;;;2.80;;
4911;SDS011;2471;47.056;8.350;2023-05-07T06:12:16;6.20;;;2.50;;
4911;SDS011;2471;47.056;8.350;2023-05-07T06:14:43;4.60;;;2.60;;
4911;SDS011;2471;47.056;8.350;2023-05-07T06:17:09;2.67;;;2.47;;
4911;SDS011;2471;47.056;8.350;2023-05-07T06:19:35;5.23;;;2.83;;
4911;SDS011;2471;47.056;8.350;2023-05-07T06:22:01;4.67;;;2.87;;
4911;SDS011;2471;47.056;8.350;2023-05-07T06:24:27;5.70;;;3.50;;
4911;SDS011;2471;47.056;8.350;2023-05-07T06:26:53;5.47;;;3.60;;
4911;SDS011;2471;47.056;8.350;2023-05-07T06:29:19;3.67;;;3.37;;
4911;SDS011;2471;47.056;8.350;2023-05-07T06:31:45;3.37;;;3.00;;
4911;SDS011;2471;47.056;8.350;2023-05-07T06:34:11;8.23;;;3.80;;
4911;SDS011;2471;47.056;8.350;2023-05-07T06:36:40;5.00;;;2.90;;
4911;SDS011;2471;47.056;8.350;2023-05-07T06:39:06;5.87;;;3.90;;
4911;SDS011;2471;47.056;8.350;2023-05-07T06:41:32;10.13;;;4.07;;
4911;SDS011;2471;47.056;8.350;2023-05-07T06:43:59;8.00;;;3.97;;
4911;SDS011;2471;47.056;8.350;2023-05-07T06:46:25;4.33;;;3.93;;
4911;SDS011;2471;47.056;8.350;2023-05-07T06:48:51;4.67;;;4.27;;
4911;SDS011;2471;47.056;8.350;2023-05-07T06:51:17;5.50;;;4.90;;
4911;SDS011;2471;47.056;8.350;2023-05-07T06:53:43;4.50;;;3.93;;
4911;SDS011;2471;47.056;8.350;2023-05-07T06:56:09;6.83;;;4.50;;
4911;SDS011;2471;47.056;8.350;2023-05-07T06:58:35;4.80;;;4.30;;
4911;SDS011;2471;47.056;8.350;2023-05-07T07:01:01;5.43;;;4.17;;
4911;SDS011;2471;47.056;8.350;2023-05-07T07:03:27;5.10;;;4.60;;
4911;SDS011;2471;47.056;8.350;2023-05-07T07:05:53;4.23;;;3.93;;
4911;SDS011;2471;47.056;8.350;2023-05-07T07:08:19;6.80;;;4.80;;
4911;SDS011;2471;47.056;8.350;2023-05-07T07:10:46;5.20;;;4.40;;
4911;SDS011;2471;47.056;8.350;2023-05-07T07:13:12;6.67;;;5.47;;
4911;SDS011;2471;47.056;8.350;2023-05-07T07:15:38;5.97;;;5.40;;
4911;SDS011;2471;47.056;8.350;2023-05-07T07:18:04;7.60;;;5.50;;
4911;SDS011;2471;47.056;8.350;2023-05-07T07:20:30;8.10;;;5.27;;
4911;SDS011;2471;47.056;8.350;2023-05-07T07:22:56;5.90;;;5.27;;
4911;SDS011;2471;47.056;8.350;2023-05-07T07:25:22;7.00;;;5.30;;
4911;SDS011;2471;47.056;8.350;2023-05-07T07:27:48;9.60;;;5.40;;
4911;SDS011;2471;47.056;8.350;2023-05-07T07:30:14;5.90;;;5.30;;
4911;SDS011;2471;47.056;8.350;2023-05-07T07:32:40;5.60;;;5.10;;
4911;SDS011;2471;47.056;8.350;2023-05-07T07:35:06;5.57;;;5.07;;
4911;SDS011;2471;47.056;8.350;2023-05-07T07:37:32;6.80;;;5.10;;
4911;SDS011;2471;47.056;8.350;2023-05-07T07:40:00;5.67;;;5.07;;
4911;SDS011;2471;47.056;8.350;2023-05-07T07:42:26;7.63;;;4.70;;
4911;SDS011;2471;47.056;8.350;2023-05-07T07:44:52;5.17;;;4.67;;
4911;SDS011;2471;47.056;8.350;2023-05-07T07:47:18;7.00;;;5.93;;
4911;SDS011;2471;47.056;8.350;2023-05-07T07:49:44;7.57;;;4.40;;
4911;SDS011;2471;47.056;8.350;2023-05-07T07:52:10;5.50;;;4.33;;
4911;SDS011;2471;47.056;8.350;2023-05-07T07:54:35;6.90;;;5.30;;
4911;SDS011;2471;47.056;8.350;2023-05-07T07:57:01;12.60;;;5.60;;
4911;SDS011;2471;47.056;8.350;2023-05-07T07:59:27;8.30;;;4.10;;
4911;SDS011;2471;47.056;8.350;2023-05-07T08:01:53;4.80;;;4.40;;
4911;SDS011;2471;47.056;8.350;2023-05-07T08:04:21;7.67;;;4.93;;
4911;SDS011;2471;47.056;8.350;2023-05-07T08:06:47;8.07;;;5.47;;
4911;SDS011;2471;47.056;8.350;2023-05-07T08:09:13;7.80;;;4.63;;
4911;SDS011;2471;47.056;8.350;2023-05-07T08:11:39;12.23;;;4.27;;
4911;SDS011;2471;47.056;8.350;2023-05-07T08:14:05;7.90;;;4.50;;
4911;SDS011;2471;47.056;8.350;2023-05-07T08:16:31;7.63;;;3.97;;
4911;SDS011;2471;47.056;8.350;2023-05-07T08:18:57;3.90;;;3.60;;
4911;SDS011;2471;47.056;8.350;2023-05-07T08:21:23;11.10;;;3.73;;
4911;SDS011;2471;47.056;8.350;2023-05-07T08:23:49;4.20;;;2.93;;
4911;SDS011;2471;47.056;8.350;2023-05-07T08:26:15;5.30;;;3.10;;
4911;SDS011;2471;47.056;8.350;2023-05-07T08:28:41;3.70;;;2.40;;
4911;SDS011;2471;47.056;8.350;2023-05-07T08:31:07;6.27;;;2.30;;
4911;SDS011;2471;47.056;8.350;2023-05-07T08:33:33;5.33;;;2.47;;
4911;SDS011;2471;47.056;8.350;2023-05-07T08:35:59;2.03;;;1.93;;
4911;SDS011;2471;47.056;8.350;2023-05-07T08:38:25;1.90;;;1.80;;
4911;SDS011;2471;47.056;8.350;2023-05-07T08:40:51;3.57;;;2.33;;
4911;SDS011;2471;47.056;8.350;2023-05-07T08:43:17;31.07;;;2.83;;
4911;SDS011;2471;47.056;8.350;2023-05-07T08:45:45;2.43;;;1.97;;
4911;SDS011;2471;47.056;8.350;2023-05-07T08:48:15;4.90;;;2.80;;
4911;SDS011;2471;47.056;8.350;2023-05-07T08:50:41;3.73;;;2.30;;
4911;SDS011;2471;47.056;8.350;2023-05-07T08:53:07;5.17;;;2.77;;
4911;SDS011;2471;47.056;8.350;2023-05-07T08:55:33;3.93;;;3.00;;
4911;SDS011;2471;47.056;8.350;2023-05-07T08:57:59;3.70;;;3.40;;
4911;SDS011;2471;47.056;8.350;2023-05-07T09:00:25;4.63;;;3.77;;
4911;SDS011;2471;47.056;8.350;2023-05-07T09:02:52;3.43;;;2.97;;
4911;SDS011;2471;47.056;8.350;2023-05-07T09:05:18;4.20;;;3.80;;
4911;SDS011;2471;47.056;8.350;2023-05-07T09:07:44;7.23;;;3.73;;
4911;SDS011;2471;47.056;8.350;2023-05-07T09:10:11;3.70;;;2.83;;
4911;SDS011;2471;47.056;8.350;2023-05-07T09:12:37;6.63;;;3.80;;
4911;SDS011;2471;47.056;8.350;2023-05-07T09:15:04;6.10;;;3.50;;
4911;SDS011;2471;47.056;8.350;2023-05-07T09:17:30;6.77;;;3.37;;
4911;SDS011;2471;47.056;8.350;2023-05-07T09:19:56;4.33;;;3.10;;
4911;SDS011;2471;47.056;8.350;2023-05-07T09:22:22;7.33;;;3.63;;
4911;SDS011;2471;47.056;8.350;2023-05-07T09:24:49;6.70;;;3.20;;
4911;SDS011;2471;47.056;8.350;2023-05-07T09:27:15;9.17;;;3.33;;
4911;SDS011;2471;47.056;8.350;2023-05-07T09:29:41;10.23;;;3.43;;
4911;SDS011;2471;47.056;8.350;2023-05-07T09:32:07;4.57;;;3.23;;
4911;SDS011;2471;47.056;8.350;2023-05-07T09:34:33;5.87;;;3.60;;
4911;SDS011;2471;47.056;8.350;2023-05-07T09:37:03;7.13;;;2.83;;
4911;SDS011;2471;47.056;8.350;2023-05-07T09:39:42;7.83;;;2.77;;
4911;SDS011;2471;47.056;8.350;2023-05-07T09:42:08;6.00;;;2.90;;
4911;SDS011;2471;47.056;8.350;2023-05-07T09:44:34;4.40;;;2.57;;
4911;SDS011;2471;47.056;8.350;2023-05-07T09:47:00;3.40;;;2.13;;
4911;SDS011;2471;47.056;8.350;2023-05-07T09:49:29;6.63;;;2.80;;
4911;SDS011;2471;47.056;8.350;2023-05-07T09:51:56;3.03;;;2.47;;
4911;SDS011;2471;47.056;8.350;2023-05-07T09:54:22;6.60;;;2.67;;
4911;SDS011;2471;47.056;8.350;2023-05-07T09:56:48;4.67;;;3.03;;
4911;SDS011;2471;47.056;8.350;2023-05-07T09:59:15;5.57;;;2.60;;
4911;SDS011;2471;47.056;8.350;2023-05-07T10:01:42;2.93;;;2.67;;
4911;SDS011;2471;47.056;8.350;2023-05-07T10:04:09;4.60;;;2.83;;
4911;SDS011;2471;47.056;8.350;2023-05-07T10:06:35;2.97;;;2.67;;
4911;SDS011;2471;47.056;8.350;2023-05-07T10:09:02;6.00;;;3.00;;
4911;SDS011;2471;47.056;8.350;2023-05-07T10:11:30;8.07;;;3.97;;
4911;SDS011;2471;47.056;8.350;2023-05-07T10:13:57;3.13;;;2.53;;
4911;SDS011;2471;47.056;8.350;2023-05-07T10:16:24;8.93;;;3.80;;
4911;SDS011;2471;47.056;8.350;2023-05-07T10:18:50;7.23;;;3.50;;
4911;SDS011;2471;47.056;8.350;2023-05-07T10:21:20;7.57;;;3.50;;
4911;SDS011;2471;47.056;8.350;2023-05-07T10:23:59;2.93;;;2.73;;
4911;SDS011;2471;47.056;8.350;2023-05-07T10:26:26;4.47;;;2.93;;
4911;SDS011;2471;47.056;8.350;2023-05-07T10:28:54;7.27;;;3.27;;
4911;SDS011;2471;47.056;8.350;2023-05-07T10:33:56;4.90;;;3.83;;
4911;SDS011;2471;47.056;8.350;2023-05-07T10:36:24;4.00;;;3.50;;
4911;SDS011;2471;47.056;8.350;2023-05-07T10:38:51;4.23;;;3.00;;
4911;SDS011;2471;47.056;8.350;2023-05-07T10:41:17;3.80;;;3.50;;
4911;SDS011;2471;47.056;8.350;2023-05-07T10:43:44;5.40;;;3.10;;
4911;SDS011;2471;47.056;8.350;2023-05-07T10:51:24;3.83;;;3.50;;
4911;SDS011;2471;47.056;8.350;2023-05-07T10:54:18;4.90;;;3.30;;
4911;SDS011;2471;47.056;8.350;2023-05-07T10:56:45;6.63;;;3.80;;
4911;SDS011;2471;47.056;8.350;2023-05-07T11:04:22;4.30;;;3.90;;
4911;SDS011;2471;47.056;8.350;2023-05-07T11:15:06;4.97;;;4.57;;
4911;SDS011;2471;47.056;8.350;2023-05-07T11:17:32;6.53;;;4.37;;
4911;SDS011;2471;47.056;8.350;2023-05-07T11:20:00;8.93;;;5.30;;
4911;SDS011;2471;47.056;8.350;2023-05-07T11:22:47;6.83;;;4.53;;
4911;SDS011;2471;47.056;8.350;2023-05-07T11:25:17;5.90;;;4.43;;
4911;SDS011;2471;47.056;8.350;2023-05-07T11:27:46;6.60;;;4.30;;
4911;SDS011;2471;47.056;8.350;2023-05-07T11:30:18;6.37;;;3.67;;
4911;SDS011;2471;47.056;8.350;2023-05-07T11:32:48;4.77;;;4.37;;
4911;SDS011;2471;47.056;8.350;2023-05-07T11:35:14;5.60;;;4.37;;
4911;SDS011;2471;47.056;8.350;2023-05-07T11:37:41;6.97;;;5.37;;
4911;SDS011;2471;47.056;8.350;2023-05-07T11:40:08;6.50;;;4.90;;
4911;SDS011;2471;47.056;8.350;2023-05-07T11:42:40;6.67;;;4.87;;
4911;SDS011;2471;47.056;8.350;2023-05-07T11:45:08;6.70;;;4.47;;
4911;SDS011;2471;47.056;8.350;2023-05-07T11:47:34;4.83;;;3.73;;
4911;SDS011;2471;47.056;8.350;2023-05-07T11:50:04;6.30;;;4.97;;
4911;SDS011;2471;47.056;8.350;2023-05-07T11:52:30;6.57;;;5.10;;
4911;SDS011;2471;47.056;8.350;2023-05-07T11:54:57;6.60;;;5.17;;
4911;SDS011;2471;47.056;8.350;2023-05-07T11:57:24;5.20;;;4.57;;
4911;SDS011;2471;47.056;8.350;2023-05-07T11:59:56;8.90;;;5.00;;
4911;SDS011;2471;47.056;8.350;2023-05-07T12:02:22;6.20;;;4.63;;
4911;SDS011;2471;47.056;8.350;2023-05-07T12:04:53;6.43;;;4.50;;
4911;SDS011;2471;47.056;8.350;2023-05-07T12:07:19;4.63;;;4.23;;
4911;SDS011;2471;47.056;8.350;2023-05-07T12:09:45;5.20;;;4.10;;
4911;SDS011;2471;47.056;8.350;2023-05-07T12:12:12;5.07;;;3.67;;
4911;SDS011;2471;47.056;8.350;2023-05-07T12:14:40;5.10;;;4.47;;
4911;SDS011;2471;47.056;8.350;2023-05-07T12:17:07;7.67;;;4.57;;
4911;SDS011;2471;47.056;8.350;2023-05-07T12:19:33;7.67;;;3.87;;
4911;SDS011;2471;47.056;8.350;2023-05-07T12:21:59;7.30;;;4.40;;
4911;SDS011;2471;47.056;8.350;2023-05-07T12:24:25;7.53;;;4.50;;
4911;SDS011;2471;47.056;8.350;2023-05-07T12:26:51;4.13;;;3.53;;
4911;SDS011;2471;47.056;8.350;2023-05-07T12:29:21;4.37;;;3.97;;
4911;SDS011;2471;47.056;8.350;2023-05-07T12:31:47;12.63;;;4.53;;
4911;SDS011;2471;47.056;8.350;2023-05-07T12:34:13;5.27;;;4.77;;
4911;SDS011;2471;47.056;8.350;2023-05-07T12:36:39;4.73;;;3.70;;
4911;SDS011;2471;47.056;8.350;2023-05-07T12:39:08;4.70;;;4.33;;
4911;SDS011;2471;47.056;8.350;2023-05-07T12:44:21;5.70;;;3.60;;
4911;SDS011;2471;47.056;8.350;2023-05-07T12:46:47;5.73;;;4.27;;
4911;SDS011;2471;47.056;8.350;2023-05-07T12:49:13;6.13;;;3.93;;
4911;SDS011;2471;47.056;8.350;2023-05-07T12:51:39;6.03;;;4.10;;
4911;SDS011;2471;47.056;8.350;2023-05-07T12:54:05;4.43;;;4.03;;
4911;SDS011;2471;47.056;8.350;2023-05-07T12:56:31;6.83;;;3.73;;
4911;SDS011;2471;47.056;8.350;2023-05-07T12:58:57;6.90;;;4.47;;
4911;SDS011;2471;47.056;8.350;2023-05-07T13:01:28;9.87;;;4.40;;
4911;SDS011;2471;47.056;8.350;2023-05-07T13:03:54;5.10;;;4.50;;
4911;SDS011;2471;47.056;8.350;2023-05-07T13:06:20;7.13;;;4.30;;
4911;SDS011;2471;47.056;8.350;2023-05-07T13:08:46;6.83;;;4.93;;
4911;SDS011;2471;47.056;8.350;2023-05-07T13:11:12;5.93;;;4.40;;
4911;SDS011;2471;47.056;8.350;2023-05-07T13:13:41;8.07;;;4.40;;
4911;SDS011;2471;47.056;8.350;2023-05-07T13:16:08;10.33;;;4.40;;
4911;SDS011;2471;47.056;8.350;2023-05-07T13:18:34;5.97;;;4.43;;
4911;SDS011;2471;47.056;8.350;2023-05-07T13:21:01;9.00;;;4.10;;
4911;SDS011;2471;47.056;8.350;2023-05-07T13:23:27;7.80;;;5.70;;
4911;SDS011;2471;47.056;8.350;2023-05-07T13:25:53;5.27;;;4.77;;
4911;SDS011;2471;47.056;8.350;2023-05-07T13:28:20;5.47;;;4.90;;
4911;SDS011;2471;47.056;8.350;2023-05-07T13:30:46;11.00;;;5.60;;
4911;SDS011;2471;47.056;8.350;2023-05-07T13:33:12;6.27;;;5.67;;
4911;SDS011;2471;47.056;8.350;2023-05-07T13:35:39;11.60;;;5.63;;
4911;SDS011;2471;47.056;8.350;2023-05-07T13:38:05;6.77;;;5.40;;
4911;SDS011;2471;47.056;8.350;2023-05-07T13:40:31;9.37;;;5.20;;
4911;SDS011;2471;47.056;8.350;2023-05-07T13:42:57;5.80;;;5.20;;
4911;SDS011;2471;47.056;8.350;2023-05-07T13:45:24;7.23;;;6.53;;
4911;SDS011;2471;47.056;8.350;2023-05-07T13:47:51;10.00;;;6.70;;
4911;SDS011;2471;47.056;8.350;2023-05-07T13:50:17;6.93;;;6.23;;
4911;SDS011;2471;47.056;8.350;2023-05-07T13:52:43;13.73;;;7.30;;
4911;SDS011;2471;47.056;8.350;2023-05-07T13:55:15;6.77;;;5.80;;
4911;SDS011;2471;47.056;8.350;2023-05-07T13:57:41;6.00;;;5.47;;
4911;SDS011;2471;47.056;8.350;2023-05-07T14:00:07;7.63;;;5.40;;
4911;SDS011;2471;47.056;8.350;2023-05-07T14:02:33;9.07;;;6.47;;
4911;SDS011;2471;47.056;8.350;2023-05-07T14:04:59;12.50;;;6.70;;
4911;SDS011;2471;47.056;8.350;2023-05-07T14:07:25;8.60;;;7.40;;
4911;SDS011;2471;47.056;8.350;2023-05-07T14:09:51;7.90;;;6.00;;
4911;SDS011;2471;47.056;8.350;2023-05-07T14:12:17;8.90;;;6.40;;
4911;SDS011;2471;47.056;8.350;2023-05-07T14:14:43;7.07;;;6.10;;
4911;SDS011;2471;47.056;8.350;2023-05-07T14:17:10;11.90;;;6.90;;
4911;SDS011;2471;47.056;8.350;2023-05-07T14:19:36;10.93;;;5.87;;
4911;SDS011;2471;47.056;8.350;2023-05-07T14:22:02;9.23;;;6.17;;
4911;SDS011;2471;47.056;8.350;2023-05-07T14:24:28;6.60;;;5.97;;
4911;SDS011;2471;47.056;8.350;2023-05-07T14:26:54;8.83;;;5.60;;
4911;SDS011;2471;47.056;8.350;2023-05-07T14:29:20;5.73;;;4.77;;
4911;SDS011;2471;47.056;8.350;2023-05-07T14:31:47;8.37;;;5.53;;
4911;SDS011;2471;47.056;8.350;2023-05-07T14:34:13;6.83;;;5.33;;
4911;SDS011;2471;47.056;8.350;2023-05-07T14:36:39;12.30;;;4.93;;
4911;SDS011;2471;47.056;8.350;2023-05-07T14:39:04;5.57;;;4.97;;
4911;SDS011;2471;47.056;8.350;2023-05-07T14:41:31;9.83;;;4.63;;
4911;SDS011;2471;47.056;8.350;2023-05-07T14:43:58;8.03;;;4.70;;
4911;SDS011;2471;47.056;8.350;2023-05-07T14:46:24;7.53;;;4.40;;
4911;SDS011;2471;47.056;8.350;2023-05-07T14:48:50;8.63;;;4.70;;
4911;SDS011;2471;47.056;8.350;2023-05-07T14:51:16;7.37;;;4.60;;
4911;SDS011;2471;47.056;8.350;2023-05-07T14:53:42;6.37;;;4.13;;
4911;SDS011;2471;47.056;8.350;2023-05-07T14:56:08;7.93;;;3.60;;
4911;SDS011;2471;47.056;8.350;2023-05-07T14:58:35;5.03;;;4.27;;
4911;SDS011;2471;47.056;8.350;2023-05-07T15:01:01;7.60;;;3.63;;
4911;SDS011;2471;47.056;8.350;2023-05-07T15:03:27;3.73;;;3.43;;
4911;SDS011;2471;47.056;8.350;2023-05-07T15:05:54;7.30;;;3.50;;
4911;SDS011;2471;47.056;8.350;2023-05-07T15:08:20;3.80;;;3.50;;
4911;SDS011;2471;47.056;8.350;2023-05-07T15:10:46;4.27;;;3.87;;
4911;SDS011;2471;47.056;8.350;2023-05-07T15:13:12;5.17;;;4.63;;
4911;SDS011;2471;47.056;8.350;2023-05-07T15:15:38;9.80;;;3.70;;
4911;SDS011;2471;47.056;8.350;2023-05-07T15:18:04;6.40;;;4.57;;
4911;SDS011;2471;47.056;8.350;2023-05-07T15:20:31;11.73;;;7.20;;
4911;SDS011;2471;47.056;8.350;2023-05-07T15:22:57;5.20;;;3.70;;
4911;SDS011;2471;47.056;8.350;2023-05-07T15:25:23;4.70;;;3.73;;
4911;SDS011;2471;47.056;8.350;2023-05-07T15:27:49;4.50;;;4.00;;
4911;SDS011;2471;47.056;8.350;2023-05-07T15:30:16;11.33;;;6.57;;
4911;SDS011;2471;47.056;8.350;2023-05-07T15:32:42;4.00;;;3.57;;
4911;SDS011;2471;47.056;8.350;2023-05-07T15:35:08;5.30;;;3.90;;